sensor_id;sensor_type;location;lat;lon;timestamp;P1;durP1;ratioP1;P2;durP2;ratioP2
48911;SDS011;34722;52.108;5.044;2023-04-25T00:00:23;17.85;;;5.82;;
48911;SDS011;34722;52.108;5.044;2023-04-25T00:02:50;18.67;;;5.80;;
48911;SDS011;34722;52.108;5.044;2023-04-25T00:05:15;18.95;;;6.32;;
48911;SDS011;34722;52.108;5.044;2023-04-25T00:07:44;27.60;;;6.50;;
48911;SDS011;34722;52.108;5.044;2023-04-25T00:10:13;21.10;;;5.30;;
48911;SDS011;34722;52.108;5.044;2023-04-25T00:12:39;22.58;;;6.28;;
48911;SDS011;34722;52.108;5.044;2023-04-25T00:15:06;17.65;;;5.60;;
48911;SDS011;34722;52.108;5.044;2023-04-25T00:17:32;19.02;;;5.95;;
48911;SDS011;34722;52.108;5.044;2023-04-25T00:20:02;23.75;;;5.97;;
48911;SDS011;34722;52.108;5.044;2023-04-25T00:22:34;17.85;;;4.70;;
48911;SDS011;34722;52.108;5.044;2023-04-25T00:25:02;13.57;;;5.60;;
48911;SDS011;34722;52.108;5.044;2023-04-25T00:27:29;16.48;;;4.78;;
48911;SDS011;34722;52.108;5.044;2023-04-25T00:29:55;18.40;;;5.18;;
48911;SDS011;34722;52.108;5.044;2023-04-25T00:32:20;24.38;;;5.68;;
48911;SDS011;34722;52.108;5.044;2023-04-25T00:34:46;25.88;;;5.90;;
48911;SDS011;34722;52.108;5.044;2023-04-25T00:37:12;18.35;;;5.22;;
48911;SDS011;34722;52.108;5.044;2023-04-25T00:39:38;29.55;;;7.30;;
48911;SDS011;34722;52.108;5.044;2023-04-25T00:42:03;14.38;;;4.90;;
48911;SDS011;34722;52.108;5.044;2023-04-25T00:44:30;20.55;;;5.53;;
48911;SDS011;34722;52.108;5.044;2023-04-25T00:46:57;28.00;;;6.07;;
48911;SDS011;34722;52.108;5.044;2023-04-25T00:49:23;27.83;;;7.20;;
48911;SDS011;34722;52.108;5.044;2023-04-25T00:51:48;27.83;;;5.57;;
48911;SDS011;34722;52.108;5.044;2023-04-25T00:54:14;21.40;;;5.65;;
48911;SDS011;34722;52.108;5.044;2023-04-25T00:56:41;18.10;;;5.00;;
48911;SDS011;34722;52.108;5.044;2023-04-25T00:59:07;16.98;;;5.35;;
48911;SDS011;34722;52.108;5.044;2023-04-25T01:01:34;17.08;;;5.95;;
48911;SDS011;34722;52.108;5.044;2023-04-25T01:04:00;21.60;;;6.10;;
48911;SDS011;34722;52.108;5.044;2023-04-25T01:06:26;17.88;;;5.75;;
48911;SDS011;34722;52.108;5.044;2023-04-25T01:08:53;23.40;;;6.20;;
48911;SDS011;34722;52.108;5.044;2023-04-25T01:11:19;23.80;;;6.40;;
48911;SDS011;34722;52.108;5.044;2023-04-25T01:13:45;28.70;;;5.70;;
48911;SDS011;34722;52.108;5.044;2023-04-25T01:16:10;22.38;;;5.28;;
48911;SDS011;34722;52.108;5.044;2023-04-25T01:18:38;24.20;;;5.78;;
48911;SDS011;34722;52.108;5.044;2023-04-25T01:21:10;24.52;;;5.88;;
48911;SDS011;34722;52.108;5.044;2023-04-25T01:23:38;26.30;;;5.32;;
48911;SDS011;34722;52.108;5.044;2023-04-25T01:26:08;19.77;;;5.00;;
48911;SDS011;34722;52.108;5.044;2023-04-25T01:28:35;28.55;;;6.30;;
48911;SDS011;34722;52.108;5.044;2023-04-25T01:31:01;22.52;;;5.75;;
48911;SDS011;34722;52.108;5.044;2023-04-25T01:33:27;27.13;;;5.25;;
48911;SDS011;34722;52.108;5.044;2023-04-25T01:35:52;19.95;;;5.13;;
48911;SDS011;34722;52.108;5.044;2023-04-25T01:38:18;22.67;;;5.47;;
48911;SDS011;34722;52.108;5.044;2023-04-25T01:40:44;30.73;;;8.00;;
48911;SDS011;34722;52.108;5.044;2023-04-25T01:43:12;21.08;;;5.22;;
48911;SDS011;34722;52.108;5.044;2023-04-25T01:45:39;22.17;;;5.75;;
48911;SDS011;34722;52.108;5.044;2023-04-25T01:48:06;25.92;;;5.53;;
48911;SDS011;34722;52.108;5.044;2023-04-25T01:50:33;15.88;;;6.03;;
48911;SDS011;34722;52.108;5.044;2023-04-25T01:52:59;23.20;;;5.75;;
48911;SDS011;34722;52.108;5.044;2023-04-25T01:55:26;16.75;;;5.47;;
48911;SDS011;34722;52.108;5.044;2023-04-25T01:57:51;18.95;;;5.68;;
48911;SDS011;34722;52.108;5.044;2023-04-25T02:00:17;13.00;;;5.05;;
48911;SDS011;34722;52.108;5.044;2023-04-25T02:02:43;17.15;;;5.22;;
48911;SDS011;34722;52.108;5.044;2023-04-25T02:05:08;23.33;;;5.63;;
48911;SDS011;34722;52.108;5.044;2023-04-25T02:07:34;28.25;;;6.38;;
48911;SDS011;34722;52.108;5.044;2023-04-25T02:10:00;18.10;;;5.63;;
48911;SDS011;34722;52.108;5.044;2023-04-25T02:12:28;16.33;;;5.72;;
48911;SDS011;34722;52.108;5.044;2023-04-25T02:14:58;28.43;;;7.80;;
48911;SDS011;34722;52.108;5.044;2023-04-25T02:17:24;17.73;;;5.70;;
48911;SDS011;34722;52.108;5.044;2023-04-25T02:20:05;39.05;;;8.90;;
48911;SDS011;34722;52.108;5.044;2023-04-25T02:22:31;28.00;;;6.47;;
48911;SDS011;34722;52.108;5.044;2023-04-25T02:24:58;26.48;;;7.13;;
48911;SDS011;34722;52.108;5.044;2023-04-25T02:27:24;25.30;;;7.82;;
48911;SDS011;34722;52.108;5.044;2023-04-25T02:29:50;23.92;;;9.13;;
48911;SDS011;34722;52.108;5.044;2023-04-25T02:32:16;23.00;;;7.18;;
48911;SDS011;34722;52.108;5.044;2023-04-25T02:34:41;22.98;;;6.50;;
48911;SDS011;34722;52.108;5.044;2023-04-25T02:37:07;30.27;;;6.90;;
48911;SDS011;34722;52.108;5.044;2023-04-25T02:39:33;29.00;;;7.45;;
48911;SDS011;34722;52.108;5.044;2023-04-25T02:41:58;23.63;;;9.52;;
48911;SDS011;34722;52.108;5.044;2023-04-25T02:44:24;30.80;;;7.45;;
48911;SDS011;34722;52.108;5.044;2023-04-25T02:46:50;23.40;;;6.10;;
48911;SDS011;34722;52.108;5.044;2023-04-25T02:49:15;23.25;;;6.63;;
48911;SDS011;34722;52.108;5.044;2023-04-25T02:51:44;17.77;;;7.00;;
48911;SDS011;34722;52.108;5.044;2023-04-25T02:54:10;24.88;;;6.10;;
48911;SDS011;34722;52.108;5.044;2023-04-25T02:56:35;24.40;;;6.15;;
48911;SDS011;34722;52.108;5.044;2023-04-25T02:59:01;26.48;;;6.70;;
48911;SDS011;34722;52.108;5.044;2023-04-25T03:01:27;17.27;;;6.32;;
48911;SDS011;34722;52.108;5.044;2023-04-25T03:03:52;18.92;;;6.20;;
48911;SDS011;34722;52.108;5.044;2023-04-25T03:06:18;16.25;;;6.05;;
48911;SDS011;34722;52.108;5.044;2023-04-25T03:08:44;22.10;;;5.43;;
48911;SDS011;34722;52.108;5.044;2023-04-25T03:11:09;17.98;;;5.63;;
48911;SDS011;34722;52.108;5.044;2023-04-25T03:13:35;22.00;;;5.70;;
48911;SDS011;34722;52.108;5.044;2023-04-25T03:16:01;12.27;;;4.10;;
48911;SDS011;34722;52.108;5.044;2023-04-25T03:18:26;17.33;;;4.03;;
48911;SDS011;34722;52.108;5.044;2023-04-25T03:20:52;10.95;;;3.95;;
48911;SDS011;34722;52.108;5.044;2023-04-25T03:23:18;16.70;;;3.88;;
48911;SDS011;34722;52.108;5.044;2023-04-25T03:25:43;16.38;;;3.78;;
48911;SDS011;34722;52.108;5.044;2023-04-25T03:28:09;12.65;;;3.90;;
48911;SDS011;34722;52.108;5.044;2023-04-25T03:30:35;15.05;;;3.33;;
48911;SDS011;34722;52.108;5.044;2023-04-25T03:33:00;20.08;;;3.33;;
48911;SDS011;34722;52.108;5.044;2023-04-25T03:35:26;15.48;;;4.28;;
48911;SDS011;34722;52.108;5.044;2023-04-25T03:37:52;7.97;;;2.85;;
48911;SDS011;34722;52.108;5.044;2023-04-25T03:40:17;9.10;;;3.50;;
48911;SDS011;34722;52.108;5.044;2023-04-25T03:42:43;10.75;;;3.53;;
48911;SDS011;34722;52.108;5.044;2023-04-25T03:45:09;11.02;;;3.08;;
48911;SDS011;34722;52.108;5.044;2023-04-25T03:47:35;13.95;;;3.28;;
48911;SDS011;34722;52.108;5.044;2023-04-25T03:50:00;15.02;;;3.83;;
48911;SDS011;34722;52.108;5.044;2023-04-25T03:52:27;12.00;;;3.25;;
48911;SDS011;34722;52.108;5.044;2023-04-25T03:54:53;14.00;;;3.35;;
48911;SDS011;34722;52.108;5.044;2023-04-25T03:57:19;9.90;;;3.70;;
48911;SDS011;34722;52.108;5.044;2023-04-25T03:59:44;17.88;;;4.20;;
48911;SDS011;34722;52.108;5.044;2023-04-25T04:02:10;14.10;;;4.32;;
48911;SDS011;34722;52.108;5.044;2023-04-25T04:04:36;12.82;;;4.70;;
48911;SDS011;34722;52.108;5.044;2023-04-25T04:07:02;9.15;;;3.63;;
48911;SDS011;34722;52.108;5.044;2023-04-25T04:09:27;8.18;;;3.60;;
48911;SDS011;34722;52.108;5.044;2023-04-25T04:11:53;19.98;;;5.60;;
48911;SDS011;34722;52.108;5.044;2023-04-25T04:14:19;12.48;;;4.53;;
48911;SDS011;34722;52.108;5.044;2023-04-25T04:16:45;13.82;;;3.72;;
48911;SDS011;34722;52.108;5.044;2023-04-25T04:19:10;16.58;;;4.45;;
48911;SDS011;34722;52.108;5.044;2023-04-25T04:21:36;9.07;;;3.63;;
48911;SDS011;34722;52.108;5.044;2023-04-25T04:24:02;8.85;;;3.17;;
48911;SDS011;34722;52.108;5.044;2023-04-25T04:26:28;11.43;;;4.22;;
48911;SDS011;34722;52.108;5.044;2023-04-25T04:28:58;13.98;;;3.60;;
48911;SDS011;34722;52.108;5.044;2023-04-25T04:31:24;9.27;;;3.28;;
48911;SDS011;34722;52.108;5.044;2023-04-25T04:33:50;15.13;;;4.00;;
48911;SDS011;34722;52.108;5.044;2023-04-25T04:36:16;10.68;;;3.58;;
48911;SDS011;34722;52.108;5.044;2023-04-25T04:38:44;14.63;;;3.55;;
48911;SDS011;34722;52.108;5.044;2023-04-25T04:41:10;17.05;;;5.07;;
48911;SDS011;34722;52.108;5.044;2023-04-25T04:43:36;13.88;;;3.88;;
48911;SDS011;34722;52.108;5.044;2023-04-25T04:46:01;9.30;;;3.60;;
48911;SDS011;34722;52.108;5.044;2023-04-25T04:48:29;9.85;;;4.00;;
48911;SDS011;34722;52.108;5.044;2023-04-25T04:50:57;10.00;;;3.90;;
48911;SDS011;34722;52.108;5.044;2023-04-25T04:53:23;9.68;;;3.92;;
48911;SDS011;34722;52.108;5.044;2023-04-25T04:55:49;14.18;;;3.05;;
48911;SDS011;34722;52.108;5.044;2023-04-25T04:58:15;8.35;;;2.95;;
48911;SDS011;34722;52.108;5.044;2023-04-25T05:00:41;13.27;;;3.53;;
48911;SDS011;34722;52.108;5.044;2023-04-25T05:03:07;8.05;;;2.70;;
48911;SDS011;34722;52.108;5.044;2023-04-25T05:08:23;16.30;;;4.28;;
48911;SDS011;34722;52.108;5.044;2023-04-25T05:10:49;11.90;;;3.90;;
48911;SDS011;34722;52.108;5.044;2023-04-25T05:13:15;13.90;;;3.38;;
48911;SDS011;34722;52.108;5.044;2023-04-25T05:15:40;17.58;;;3.70;;
48911;SDS011;34722;52.108;5.044;2023-04-25T05:18:06;13.63;;;3.30;;
48911;SDS011;34722;52.108;5.044;2023-04-25T05:20:32;8.30;;;2.90;;
48911;SDS011;34722;52.108;5.044;2023-04-25T05:22:57;13.30;;;4.10;;
48911;SDS011;34722;52.108;5.044;2023-04-25T05:25:23;27.50;;;5.80;;
48911;SDS011;34722;52.108;5.044;2023-04-25T05:27:52;8.57;;;2.65;;
48911;SDS011;34722;52.108;5.044;2023-04-25T05:30:27;5.00;;;2.47;;
48911;SDS011;34722;52.108;5.044;2023-04-25T05:32:56;15.30;;;2.92;;
48911;SDS011;34722;52.108;5.044;2023-04-25T05:35:24;14.95;;;2.30;;
48911;SDS011;34722;52.108;5.044;2023-04-25T05:37:50;9.88;;;2.70;;
48911;SDS011;34722;52.108;5.044;2023-04-25T05:40:19;15.38;;;4.32;;
48911;SDS011;34722;52.108;5.044;2023-04-25T05:42:57;13.90;;;4.22;;
48911;SDS011;34722;52.108;5.044;2023-04-25T05:45:22;10.40;;;2.90;;
48911;SDS011;34722;52.108;5.044;2023-04-25T05:47:48;12.68;;;3.13;;
48911;SDS011;34722;52.108;5.044;2023-04-25T05:50:20;9.38;;;3.10;;
48911;SDS011;34722;52.108;5.044;2023-04-25T05:52:46;8.45;;;2.70;;
48911;SDS011;34722;52.108;5.044;2023-04-25T05:55:11;10.73;;;2.83;;
48911;SDS011;34722;52.108;5.044;2023-04-25T05:57:56;14.70;;;4.82;;
48911;SDS011;34722;52.108;5.044;2023-04-25T06:00:32;8.63;;;2.83;;
48911;SDS011;34722;52.108;5.044;2023-04-25T07:14:40;8.07;;;3.08;;
48911;SDS011;34722;52.108;5.044;2023-04-25T07:17:10;10.52;;;3.17;;
48911;SDS011;34722;52.108;5.044;2023-04-25T07:19:40;12.55;;;2.60;;
48911;SDS011;34722;52.108;5.044;2023-04-25T07:22:10;11.48;;;2.40;;
48911;SDS011;34722;52.108;5.044;2023-04-25T07:27:24;6.47;;;2.30;;
48911;SDS011;34722;52.108;5.044;2023-04-25T07:29:50;4.75;;;2.10;;
48911;SDS011;34722;52.108;5.044;2023-04-25T07:32:16;7.60;;;1.70;;
48911;SDS011;34722;52.108;5.044;2023-04-25T07:34:44;8.75;;;1.90;;
48911;SDS011;34722;52.108;5.044;2023-04-25T07:37:10;2.97;;;1.63;;
48911;SDS011;34722;52.108;5.044;2023-04-25T07:39:39;7.13;;;1.83;;
48911;SDS011;34722;52.108;5.044;2023-04-25T07:42:06;6.80;;;2.38;;
48911;SDS011;34722;52.108;5.044;2023-04-25T07:44:45;7.78;;;2.42;;
48911;SDS011;34722;52.108;5.044;2023-04-25T07:47:16;2.65;;;2.03;;
48911;SDS011;34722;52.108;5.044;2023-04-25T07:49:51;3.15;;;1.77;;
48911;SDS011;34722;52.108;5.044;2023-04-25T07:52:17;6.10;;;2.20;;
48911;SDS011;34722;52.108;5.044;2023-04-25T07:55:19;7.38;;;2.20;;
48911;SDS011;34722;52.108;5.044;2023-04-25T07:57:54;11.13;;;2.75;;
48911;SDS011;34722;52.108;5.044;2023-04-25T08:03:50;7.50;;;3.33;;
48911;SDS011;34722;52.108;5.044;2023-04-25T08:06:16;5.10;;;2.72;;
48911;SDS011;34722;52.108;5.044;2023-04-25T08:08:46;12.45;;;3.25;;
48911;SDS011;34722;52.108;5.044;2023-04-25T08:11:12;8.07;;;2.97;;
48911;SDS011;34722;52.108;5.044;2023-04-25T08:13:37;8.80;;;3.08;;
48911;SDS011;34722;52.108;5.044;2023-04-25T08:16:03;6.95;;;3.30;;
48911;SDS011;34722;52.108;5.044;2023-04-25T08:18:29;7.82;;;3.17;;
48911;SDS011;34722;52.108;5.044;2023-04-25T08:20:59;8.40;;;3.47;;
48911;SDS011;34722;52.108;5.044;2023-04-25T08:23:24;7.53;;;4.00;;
48911;SDS011;34722;52.108;5.044;2023-04-25T08:25:50;5.22;;;2.97;;
48911;SDS011;34722;52.108;5.044;2023-04-25T08:31:07;5.93;;;3.00;;
48911;SDS011;34722;52.108;5.044;2023-04-25T08:33:33;6.95;;;3.80;;
48911;SDS011;34722;52.108;5.044;2023-04-25T08:35:59;4.90;;;3.83;;
48911;SDS011;34722;52.108;5.044;2023-04-25T08:38:25;7.43;;;3.58;;
48911;SDS011;34722;52.108;5.044;2023-04-25T08:40:54;6.65;;;3.67;;
48911;SDS011;34722;52.108;5.044;2023-04-25T08:43:21;8.75;;;4.30;;
48911;SDS011;34722;52.108;5.044;2023-04-25T08:45:50;6.28;;;3.38;;
48911;SDS011;34722;52.108;5.044;2023-04-25T08:48:19;9.48;;;4.03;;
48911;SDS011;34722;52.108;5.044;2023-04-25T08:53:21;5.07;;;3.53;;
48911;SDS011;34722;52.108;5.044;2023-04-25T08:55:54;8.40;;;3.03;;
48911;SDS011;34722;52.108;5.044;2023-04-25T08:58:21;5.85;;;2.40;;
48911;SDS011;34722;52.108;5.044;2023-04-25T09:00:50;6.40;;;2.70;;
48911;SDS011;34722;52.108;5.044;2023-04-25T09:03:16;9.02;;;2.55;;
48911;SDS011;34722;52.108;5.044;2023-04-25T09:05:43;5.28;;;2.47;;
48911;SDS011;34722;52.108;5.044;2023-04-25T09:10:54;5.65;;;2.20;;
48911;SDS011;34722;52.108;5.044;2023-04-25T09:13:27;7.00;;;3.75;;
48911;SDS011;34722;52.108;5.044;2023-04-25T09:15:57;7.85;;;2.72;;
48911;SDS011;34722;52.108;5.044;2023-04-25T09:21:09;4.22;;;2.60;;
48911;SDS011;34722;52.108;5.044;2023-04-25T09:23:44;18.92;;;2.72;;
48911;SDS011;34722;52.108;5.044;2023-04-25T09:26:16;6.78;;;2.40;;
48911;SDS011;34722;52.108;5.044;2023-04-25T09:28:43;6.40;;;2.15;;
48911;SDS011;34722;52.108;5.044;2023-04-25T09:31:20;7.55;;;2.30;;
48911;SDS011;34722;52.108;5.044;2023-04-25T09:33:58;6.55;;;2.67;;
48911;SDS011;34722;52.108;5.044;2023-04-25T09:36:29;6.05;;;2.20;;
48911;SDS011;34722;52.108;5.044;2023-04-25T09:38:55;5.65;;;2.13;;
48911;SDS011;34722;52.108;5.044;2023-04-25T09:41:24;9.82;;;2.13;;
48911;SDS011;34722;52.108;5.044;2023-04-25T09:43:50;2.55;;;1.40;;
48911;SDS011;34722;52.108;5.044;2023-04-25T09:46:16;2.20;;;1.70;;
48911;SDS011;34722;52.108;5.044;2023-04-25T09:48:50;5.97;;;1.80;;
48911;SDS011;34722;52.108;5.044;2023-04-25T09:51:18;2.92;;;1.75;;
48911;SDS011;34722;52.108;5.044;2023-04-25T09:53:47;6.43;;;2.13;;
48911;SDS011;34722;52.108;5.044;2023-04-25T09:56:16;5.18;;;1.75;;
48911;SDS011;34722;52.108;5.044;2023-04-25T09:58:42;6.72;;;2.35;;
48911;SDS011;34722;52.108;5.044;2023-04-25T10:01:08;6.97;;;2.42;;
48911;SDS011;34722;52.108;5.044;2023-04-25T10:03:35;4.40;;;1.40;;
48911;SDS011;34722;52.108;5.044;2023-04-25T10:06:03;6.28;;;2.45;;
48911;SDS011;34722;52.108;5.044;2023-04-25T10:08:36;7.95;;;1.75;;
48911;SDS011;34722;52.108;5.044;2023-04-25T10:11:07;5.47;;;2.50;;
48911;SDS011;34722;52.108;5.044;2023-04-25T10:13:39;3.85;;;1.60;;
48911;SDS011;34722;52.108;5.044;2023-04-25T10:16:06;5.97;;;2.22;;
48911;SDS011;34722;52.108;5.044;2023-04-25T10:18:32;4.63;;;2.03;;
48911;SDS011;34722;52.108;5.044;2023-04-25T10:20:59;1.55;;;1.30;;
48911;SDS011;34722;52.108;5.044;2023-04-25T10:23:30;5.95;;;2.22;;
48911;SDS011;34722;52.108;5.044;2023-04-25T10:25:56;7.07;;;1.75;;
48911;SDS011;34722;52.108;5.044;2023-04-25T10:28:23;6.43;;;2.15;;
48911;SDS011;34722;52.108;5.044;2023-04-25T10:31:07;4.07;;;2.45;;
48911;SDS011;34722;52.108;5.044;2023-04-25T10:33:36;2.40;;;2.08;;
48911;SDS011;34722;52.108;5.044;2023-04-25T10:36:14;6.60;;;2.60;;
48911;SDS011;34722;52.108;5.044;2023-04-25T10:38:43;5.45;;;2.47;;
48911;SDS011;34722;52.108;5.044;2023-04-25T10:41:10;9.15;;;3.00;;
48911;SDS011;34722;52.108;5.044;2023-04-25T10:43:38;5.55;;;2.83;;
48911;SDS011;34722;52.108;5.044;2023-04-25T10:48:58;5.32;;;3.03;;
48911;SDS011;34722;52.108;5.044;2023-04-25T10:51:34;10.45;;;3.72;;
48911;SDS011;34722;52.108;5.044;2023-04-25T10:54:04;6.05;;;2.40;;
48911;SDS011;34722;52.108;5.044;2023-04-25T10:56:41;7.40;;;2.95;;
48911;SDS011;34722;52.108;5.044;2023-04-25T10:59:11;8.35;;;2.38;;
48911;SDS011;34722;52.108;5.044;2023-04-25T11:01:39;10.23;;;2.35;;
48911;SDS011;34722;52.108;5.044;2023-04-25T11:04:06;4.28;;;2.47;;
48911;SDS011;34722;52.108;5.044;2023-04-25T11:06:54;4.47;;;1.98;;
48911;SDS011;34722;52.108;5.044;2023-04-25T11:09:35;6.97;;;2.15;;
48911;SDS011;34722;52.108;5.044;2023-04-25T11:12:03;6.80;;;2.30;;
48911;SDS011;34722;52.108;5.044;2023-04-25T11:14:29;5.00;;;2.60;;
48911;SDS011;34722;52.108;5.044;2023-04-25T11:16:56;4.95;;;2.03;;
48911;SDS011;34722;52.108;5.044;2023-04-25T11:19:23;4.13;;;2.08;;
48911;SDS011;34722;52.108;5.044;2023-04-25T11:21:50;6.68;;;2.05;;
48911;SDS011;34722;52.108;5.044;2023-04-25T11:24:19;4.22;;;2.05;;
48911;SDS011;34722;52.108;5.044;2023-04-25T11:26:50;7.63;;;2.40;;
48911;SDS011;34722;52.108;5.044;2023-04-25T11:29:15;6.70;;;2.15;;
48911;SDS011;34722;52.108;5.044;2023-04-25T11:31:44;6.35;;;2.17;;
48911;SDS011;34722;52.108;5.044;2023-04-25T11:34:16;7.20;;;2.90;;
48911;SDS011;34722;52.108;5.044;2023-04-25T11:36:43;10.20;;;2.35;;
48911;SDS011;34722;52.108;5.044;2023-04-25T11:39:10;5.47;;;2.13;;
48911;SDS011;34722;52.108;5.044;2023-04-25T11:41:37;4.38;;;2.00;;
48911;SDS011;34722;52.108;5.044;2023-04-25T11:44:03;6.35;;;2.25;;
48911;SDS011;34722;52.108;5.044;2023-04-25T11:46:29;4.15;;;2.00;;
48911;SDS011;34722;52.108;5.044;2023-04-25T11:48:55;11.98;;;2.70;;
48911;SDS011;34722;52.108;5.044;2023-04-25T11:51:22;9.75;;;2.67;;
48911;SDS011;34722;52.108;5.044;2023-04-25T11:53:47;6.65;;;2.17;;
48911;SDS011;34722;52.108;5.044;2023-04-25T11:56:13;5.22;;;2.00;;
48911;SDS011;34722;52.108;5.044;2023-04-25T11:58:59;8.27;;;3.65;;
48911;SDS011;34722;52.108;5.044;2023-04-25T12:01:37;8.52;;;2.65;;
48911;SDS011;34722;52.108;5.044;2023-04-25T12:04:21;6.80;;;2.85;;
48911;SDS011;34722;52.108;5.044;2023-04-25T12:09:29;12.82;;;2.83;;
48911;SDS011;34722;52.108;5.044;2023-04-25T12:11:57;8.38;;;2.30;;
48911;SDS011;34722;52.108;5.044;2023-04-25T12:14:25;7.63;;;2.50;;
48911;SDS011;34722;52.108;5.044;2023-04-25T12:16:52;4.32;;;2.30;;
48911;SDS011;34722;52.108;5.044;2023-04-25T12:19:23;8.43;;;3.00;;
48911;SDS011;34722;52.108;5.044;2023-04-25T12:21:52;7.38;;;2.10;;
48911;SDS011;34722;52.108;5.044;2023-04-25T12:24:22;5.28;;;2.33;;
48911;SDS011;34722;52.108;5.044;2023-04-25T12:26:54;5.15;;;2.47;;
48911;SDS011;34722;52.108;5.044;2023-04-25T12:29:31;8.60;;;3.17;;
48911;SDS011;34722;52.108;5.044;2023-04-25T12:31:58;10.95;;;2.72;;
48911;SDS011;34722;52.108;5.044;2023-04-25T12:34:24;9.75;;;2.50;;
48911;SDS011;34722;52.108;5.044;2023-04-25T12:36:51;6.72;;;2.25;;
48911;SDS011;34722;52.108;5.044;2023-04-25T12:39:21;7.68;;;2.03;;
48911;SDS011;34722;52.108;5.044;2023-04-25T12:41:49;7.32;;;2.40;;
48911;SDS011;34722;52.108;5.044;2023-04-25T12:44:17;8.93;;;2.58;;
48911;SDS011;34722;52.108;5.044;2023-04-25T12:46:42;5.22;;;3.05;;
48911;SDS011;34722;52.108;5.044;2023-04-25T12:49:08;4.95;;;1.98;;
48911;SDS011;34722;52.108;5.044;2023-04-25T12:51:34;9.55;;;2.00;;
48911;SDS011;34722;52.108;5.044;2023-04-25T12:54:01;4.70;;;2.42;;
48911;SDS011;34722;52.108;5.044;2023-04-25T12:56:27;5.05;;;1.88;;
48911;SDS011;34722;52.108;5.044;2023-04-25T12:58:54;3.72;;;1.63;;
48911;SDS011;34722;52.108;5.044;2023-04-25T13:01:20;7.75;;;1.98;;
48911;SDS011;34722;52.108;5.044;2023-04-25T13:03:46;4.68;;;1.80;;
48911;SDS011;34722;52.108;5.044;2023-04-25T13:06:13;4.25;;;1.80;;
48911;SDS011;34722;52.108;5.044;2023-04-25T13:08:39;5.18;;;1.80;;
48911;SDS011;34722;52.108;5.044;2023-04-25T13:30:00;4.75;;;2.38;;
48911;SDS011;34722;52.108;5.044;2023-04-25T13:32:29;9.85;;;3.13;;
48911;SDS011;34722;52.108;5.044;2023-04-25T13:34:55;5.32;;;1.80;;
48911;SDS011;34722;52.108;5.044;2023-04-25T13:37:21;9.48;;;2.25;;
48911;SDS011;34722;52.108;5.044;2023-04-25T13:39:49;7.45;;;3.50;;
48911;SDS011;34722;52.108;5.044;2023-04-25T13:42:14;8.70;;;2.47;;
48911;SDS011;34722;52.108;5.044;2023-04-25T13:44:41;7.43;;;2.03;;
48911;SDS011;34722;52.108;5.044;2023-04-25T13:47:06;3.90;;;1.70;;
48911;SDS011;34722;52.108;5.044;2023-04-25T13:49:32;9.10;;;2.15;;
48911;SDS011;34722;52.108;5.044;2023-04-25T13:51:57;9.45;;;2.50;;
48911;SDS011;34722;52.108;5.044;2023-04-25T13:54:23;6.63;;;2.20;;
48911;SDS011;34722;52.108;5.044;2023-04-25T13:56:49;7.50;;;2.00;;
48911;SDS011;34722;52.108;5.044;2023-04-25T13:59:15;6.45;;;3.00;;
48911;SDS011;34722;52.108;5.044;2023-04-25T14:01:41;10.05;;;3.30;;
48911;SDS011;34722;52.108;5.044;2023-04-25T14:04:06;7.15;;;2.30;;
48911;SDS011;34722;52.108;5.044;2023-04-25T14:06:32;5.85;;;2.08;;
48911;SDS011;34722;52.108;5.044;2023-04-25T14:08:58;5.70;;;2.30;;
48911;SDS011;34722;52.108;5.044;2023-04-25T14:11:32;4.45;;;1.88;;
48911;SDS011;34722;52.108;5.044;2023-04-25T14:13:58;7.63;;;2.20;;
48911;SDS011;34722;52.108;5.044;2023-04-25T14:16:23;7.03;;;2.38;;
48911;SDS011;34722;52.108;5.044;2023-04-25T14:18:49;5.35;;;2.40;;
48911;SDS011;34722;52.108;5.044;2023-04-25T14:21:15;6.85;;;2.42;;
48911;SDS011;34722;52.108;5.044;2023-04-25T14:23:40;5.95;;;2.60;;
48911;SDS011;34722;52.108;5.044;2023-04-25T14:26:06;10.50;;;2.30;;
48911;SDS011;34722;52.108;5.044;2023-04-25T14:28:32;9.35;;;2.35;;
48911;SDS011;34722;52.108;5.044;2023-04-25T14:30:58;4.30;;;2.17;;
48911;SDS011;34722;52.108;5.044;2023-04-25T14:33:23;7.25;;;2.08;;
48911;SDS011;34722;52.108;5.044;2023-04-25T14:35:50;7.03;;;2.67;;
48911;SDS011;34722;52.108;5.044;2023-04-25T14:38:15;11.00;;;2.00;;
48911;SDS011;34722;52.108;5.044;2023-04-25T14:40:41;4.15;;;2.20;;
48911;SDS011;34722;52.108;5.044;2023-04-25T14:43:07;6.57;;;2.55;;
48911;SDS011;34722;52.108;5.044;2023-04-25T14:45:33;6.97;;;2.10;;
48911;SDS011;34722;52.108;5.044;2023-04-25T14:47:58;5.38;;;1.80;;
48911;SDS011;34722;52.108;5.044;2023-04-25T14:50:24;5.80;;;1.73;;
48911;SDS011;34722;52.108;5.044;2023-04-25T14:52:50;5.38;;;2.00;;
48911;SDS011;34722;52.108;5.044;2023-04-25T14:57:49;5.88;;;2.00;;
48911;SDS011;34722;52.108;5.044;2023-04-25T15:00:18;9.95;;;2.20;;
48911;SDS011;34722;52.108;5.044;2023-04-25T15:02:46;4.07;;;1.92;;
48911;SDS011;34722;52.108;5.044;2023-04-25T15:05:15;6.93;;;3.47;;
48911;SDS011;34722;52.108;5.044;2023-04-25T15:07:41;7.85;;;2.90;;
48911;SDS011;34722;52.108;5.044;2023-04-25T15:10:10;8.38;;;2.10;;
48911;SDS011;34722;52.108;5.044;2023-04-25T15:12:40;6.43;;;2.55;;
48911;SDS011;34722;52.108;5.044;2023-04-25T15:15:07;5.78;;;2.13;;
48911;SDS011;34722;52.108;5.044;2023-04-25T15:17:43;6.35;;;2.30;;
48911;SDS011;34722;52.108;5.044;2023-04-25T15:20:10;11.65;;;2.55;;
48911;SDS011;34722;52.108;5.044;2023-04-25T15:22:41;5.80;;;2.20;;
48911;SDS011;34722;52.108;5.044;2023-04-25T15:25:08;7.82;;;2.50;;
48911;SDS011;34722;52.108;5.044;2023-04-25T15:27:35;5.65;;;2.22;;
48911;SDS011;34722;52.108;5.044;2023-04-25T15:30:10;13.75;;;2.85;;
48911;SDS011;34722;52.108;5.044;2023-04-25T15:32:38;9.25;;;2.92;;
48911;SDS011;34722;52.108;5.044;2023-04-25T15:35:04;3.95;;;2.45;;
48911;SDS011;34722;52.108;5.044;2023-04-25T15:37:34;8.10;;;3.08;;
48911;SDS011;34722;52.108;5.044;2023-04-25T15:40:04;9.02;;;3.45;;
48911;SDS011;34722;52.108;5.044;2023-04-25T15:42:40;11.73;;;2.92;;
48911;SDS011;34722;52.108;5.044;2023-04-25T15:45:08;9.13;;;2.70;;
48911;SDS011;34722;52.108;5.044;2023-04-25T15:47:36;10.85;;;3.05;;
48911;SDS011;34722;52.108;5.044;2023-04-25T15:50:04;6.57;;;2.58;;
48911;SDS011;34722;52.108;5.044;2023-04-25T15:52:32;5.32;;;2.20;;
48911;SDS011;34722;52.108;5.044;2023-04-25T15:54:58;9.80;;;2.33;;
48911;SDS011;34722;52.108;5.044;2023-04-25T15:57:25;8.35;;;2.25;;
48911;SDS011;34722;52.108;5.044;2023-04-25T15:59:51;3.13;;;1.75;;
48911;SDS011;34722;52.108;5.044;2023-04-25T16:02:17;5.85;;;2.50;;
48911;SDS011;34722;52.108;5.044;2023-04-25T16:04:43;7.50;;;2.78;;
48911;SDS011;34722;52.108;5.044;2023-04-25T16:07:09;3.53;;;2.15;;
48911;SDS011;34722;52.108;5.044;2023-04-25T16:09:35;4.68;;;1.67;;
48911;SDS011;34722;52.108;5.044;2023-04-25T16:12:02;7.97;;;3.83;;
48911;SDS011;34722;52.108;5.044;2023-04-25T16:14:28;7.10;;;2.22;;
48911;SDS011;34722;52.108;5.044;2023-04-25T16:16:54;8.40;;;2.00;;
48911;SDS011;34722;52.108;5.044;2023-04-25T16:19:20;7.00;;;2.20;;
48911;SDS011;34722;52.108;5.044;2023-04-25T16:21:46;2.95;;;2.03;;
48911;SDS011;34722;52.108;5.044;2023-04-25T16:24:11;8.93;;;2.00;;
48911;SDS011;34722;52.108;5.044;2023-04-25T16:26:37;4.88;;;2.60;;
48911;SDS011;34722;52.108;5.044;2023-04-25T16:29:05;9.32;;;2.13;;
48911;SDS011;34722;52.108;5.044;2023-04-25T16:31:34;6.97;;;3.00;;
48911;SDS011;34722;52.108;5.044;2023-04-25T16:34:03;5.90;;;2.28;;
48911;SDS011;34722;52.108;5.044;2023-04-25T16:36:29;5.00;;;2.08;;
48911;SDS011;34722;52.108;5.044;2023-04-25T16:38:57;8.13;;;2.00;;
48911;SDS011;34722;52.108;5.044;2023-04-25T16:41:25;8.25;;;2.95;;
48911;SDS011;34722;52.108;5.044;2023-04-25T16:43:51;7.68;;;2.75;;